createdAt,value
2022-11-13T00:00:07.832Z,22.23
2022-11-13T00:00:19.730Z,21.48
2022-11-13T00:00:31.739Z,20.45
2022-11-13T00:00:43.508Z,19.58
2022-11-13T00:00:55.425Z,20.00
2022-11-13T00:01:11.911Z,20.73
2022-11-13T00:01:25.249Z,22.23
2022-11-13T00:01:37.050Z,21.85
2022-11-13T00:01:48.946Z,21.60
2022-11-13T00:02:00.745Z,22.50
2022-11-13T00:02:12.631Z,22.33
2022-11-13T00:02:24.475Z,20.95
2022-11-13T00:02:36.487Z,21.00
2022-11-13T00:02:48.319Z,21.23
2022-11-13T00:03:00.151Z,21.58
2022-11-13T00:03:12.057Z,21.27
2022-11-13T00:03:24.112Z,20.70
2022-11-13T00:03:36.076Z,20.58
2022-11-13T00:03:47.960Z,20.67
2022-11-13T00:03:59.734Z,20.77
2022-11-13T00:04:12.960Z,20.52
2022-11-13T00:04:25.079Z,19.95
2022-11-13T00:04:36.913Z,19.45
2022-11-13T00:04:48.783Z,19.20
2022-11-13T00:05:00.632Z,20.38
2022-11-13T00:05:12.440Z,21.40
2022-11-13T00:05:24.245Z,21.90
2022-11-13T00:05:36.108Z,22.20
2022-11-13T00:05:48.009Z,21.67
2022-11-13T00:06:03.250Z,21.48
2022-11-13T00:06:15.415Z,21.20
2022-11-13T00:06:27.185Z,21.17
2022-11-13T00:06:38.958Z,21.25
2022-11-13T00:06:53.668Z,21.08
2022-11-13T00:07:09.790Z,20.15
2022-11-13T00:07:21.736Z,20.25
2022-11-13T00:07:33.527Z,20.58
2022-11-13T00:07:45.367Z,21.05
2022-11-13T00:07:57.194Z,19.92
2022-11-13T00:08:09.011Z,19.95
2022-11-13T00:08:20.967Z,20.55
2022-11-13T00:08:32.842Z,21.27
2022-11-13T00:08:44.910Z,20.90
2022-11-13T00:08:56.717Z,21.10
2022-11-13T00:09:11.377Z,20.05
2022-11-13T00:09:23.168Z,20.40
2022-11-13T00:09:34.978Z,20.13
2022-11-13T00:09:47.009Z,19.02
2022-11-13T00:09:58.900Z,19.80
2022-11-13T00:10:10.756Z,20.65
2022-11-13T00:10:22.573Z,20.15
2022-11-13T00:10:34.315Z,19.75
2022-11-13T00:10:46.144Z,19.70
2022-11-13T00:11:05.301Z,20.13
2022-11-13T00:11:19.488Z,20.92
2022-11-13T00:11:31.349Z,20.58
2022-11-13T00:11:43.244Z,20.17
2022-11-13T00:11:55.058Z,20.05
2022-11-13T00:12:06.935Z,20.67
2022-11-13T00:12:18.772Z,21.58
2022-11-13T00:12:30.583Z,20.83
2022-11-13T00:12:42.490Z,20.20
2022-11-13T00:12:54.397Z,20.42
2022-11-13T00:13:06.605Z,21.45
2022-11-13T00:13:18.457Z,21.60
2022-11-13T00:13:30.782Z,21.27
2022-11-13T00:13:45.560Z,22.33
2022-11-13T00:13:57.375Z,22.27
2022-11-13T00:14:09.149Z,21.58
2022-11-13T00:14:21.201Z,22.38
2022-11-13T00:14:33.082Z,22.80
2022-11-13T00:14:44.860Z,23.00
2022-11-13T00:14:56.636Z,23.40
2022-11-13T00:15:08.997Z,23.58
2022-11-13T00:15:20.825Z,22.35
2022-11-13T00:15:32.703Z,21.73
2022-11-13T00:15:44.542Z,22.30
2022-11-13T00:16:03.100Z,22.90
2022-11-13T00:16:17.662Z,21.83
2022-11-13T00:16:29.458Z,21.13
2022-11-13T00:16:41.270Z,21.38
2022-11-13T00:16:52.987Z,20.52
2022-11-13T00:17:04.784Z,20.80
2022-11-13T00:17:16.622Z,21.42
2022-11-13T00:17:28.775Z,22.08
2022-11-13T00:17:40.574Z,20.95
2022-11-13T00:17:52.350Z,20.00
2022-11-13T00:18:04.384Z,20.27
2022-11-13T00:18:16.336Z,20.20
2022-11-13T00:18:30.411Z,20.77
2022-11-13T00:18:42.605Z,20.98
2022-11-13T00:18:54.353Z,21.17
2022-11-13T00:19:06.206Z,20.17
2022-11-13T00:19:18.119Z,19.83
2022-11-13T00:19:29.942Z,21.13
2022-11-13T00:19:41.666Z,22.38
2022-11-13T00:19:53.460Z,22.38
2022-11-13T00:20:05.798Z,22.10
2022-11-13T00:20:18.598Z,22.38
2022-11-13T00:20:30.394Z,22.48
2022-11-13T00:20:42.241Z,21.52
2022-11-13T00:20:54.209Z,20.75
2022-11-13T00:21:12.108Z,20.17
2022-11-13T00:21:25.352Z,20.63
2022-11-13T00:21:37.165Z,20.70
2022-11-13T00:21:48.941Z,20.35
2022-11-13T00:22:00.822Z,19.95
2022-11-13T00:22:13.269Z,20.20
2022-11-13T00:22:25.020Z,20.75
2022-11-13T00:22:36.810Z,21.42
2022-11-13T00:22:48.631Z,21.83
2022-11-13T00:23:00.497Z,21.55
2022-11-13T00:23:12.278Z,21.35
2022-11-13T00:23:24.331Z,20.95
2022-11-13T00:23:36.597Z,20.42
2022-11-13T00:23:48.676Z,20.20
2022-11-13T00:24:00.463Z,21.05
2022-11-13T00:24:12.229Z,20.25
2022-11-13T00:24:24.075Z,19.77
2022-11-13T00:24:35.945Z,19.33
2022-11-13T00:24:47.705Z,19.35
2022-11-13T00:24:59.489Z,19.60
2022-11-13T00:25:11.335Z,19.60
2022-11-13T00:25:23.194Z,18.55
2022-11-13T00:25:35.856Z,18.70
2022-11-13T00:25:47.725Z,19.48
2022-11-13T00:26:07.960Z,20.05
2022-11-13T00:26:24.975Z,20.48
2022-11-13T00:26:36.770Z,20.77
2022-11-13T00:26:49.049Z,21.70
2022-11-13T00:27:00.918Z,21.58
2022-11-13T00:27:12.808Z,20.85
2022-11-13T00:27:24.596Z,20.80
2022-11-13T00:27:36.478Z,20.95
2022-11-13T00:27:48.369Z,21.17
2022-11-13T00:28:00.321Z,20.77
2022-11-13T00:28:12.052Z,20.30
2022-11-13T00:28:24.054Z,20.90
2022-11-13T00:28:36.067Z,21.38
2022-11-13T00:28:51.680Z,20.83
2022-11-13T00:29:03.731Z,20.38
2022-11-13T00:29:15.795Z,20.38
2022-11-13T00:29:27.587Z,20.95
2022-11-13T00:29:39.855Z,21.05
2022-11-13T00:29:51.638Z,21.98
2022-11-13T00:30:05.269Z,21.92
2022-11-13T00:30:19.508Z,21.73
2022-11-13T00:30:31.494Z,21.33
2022-11-13T00:30:43.272Z,20.98
2022-11-13T00:31:02.170Z,20.60
2022-11-13T00:31:15.229Z,21.27
2022-11-13T00:31:27.089Z,20.23
2022-11-13T00:31:38.805Z,20.88
2022-11-13T00:31:50.600Z,20.38
2022-11-13T00:32:02.435Z,19.33
2022-11-13T00:32:14.326Z,19.17
2022-11-13T00:32:26.614Z,19.75
2022-11-13T00:32:40.073Z,19.83
2022-11-13T00:32:51.824Z,19.27
2022-11-13T00:33:03.619Z,20.17
2022-11-13T00:33:26.459Z,20.70
2022-11-13T00:34:19.529Z,20.90
2022-11-13T00:34:45.899Z,19.45
2022-11-13T00:34:50.856Z,20.40
2022-11-13T00:35:02.638Z,19.92
2022-11-13T00:35:14.511Z,20.45
2022-11-13T00:35:26.297Z,20.17
2022-11-13T00:35:38.019Z,20.00
2022-11-13T00:35:49.786Z,19.58
2022-11-13T00:36:05.480Z,19.90
2022-11-13T00:36:26.444Z,21.35
2022-11-13T00:36:38.577Z,20.77
2022-11-13T00:36:50.408Z,20.45
2022-11-13T00:37:02.291Z,20.58
2022-11-13T00:37:14.181Z,20.30
2022-11-13T00:37:25.935Z,20.17
2022-11-13T00:37:37.821Z,19.65
2022-11-13T00:37:49.569Z,21.35
2022-11-13T00:38:01.369Z,21.75
2022-11-13T00:38:13.186Z,21.73
2022-11-13T00:38:25.160Z,20.75
2022-11-13T00:38:37.109Z,21.23
2022-11-13T00:38:49.014Z,20.90
2022-11-13T00:39:00.874Z,21.00
2022-11-13T00:39:12.641Z,20.92
2022-11-13T00:39:24.538Z,22.33
2022-11-13T00:39:36.309Z,23.10
2022-11-13T00:39:48.076Z,22.45
2022-11-13T00:39:59.967Z,22.70
2022-11-13T00:40:12.071Z,22.23
2022-11-13T00:40:23.830Z,22.05
2022-11-13T00:40:35.758Z,20.38
2022-11-13T00:40:47.527Z,19.55
2022-11-13T00:40:59.423Z,18.92
2022-11-13T00:41:11.400Z,19.27
2022-11-13T00:41:23.756Z,20.98
2022-11-13T00:41:35.545Z,23.23
2022-11-13T00:41:47.360Z,23.13
2022-11-13T00:41:59.206Z,22.13
2022-11-13T00:42:10.985Z,22.83
2022-11-13T00:42:22.786Z,22.58
2022-11-13T00:42:34.508Z,20.90
2022-11-13T00:42:46.251Z,19.67
2022-11-13T00:42:58.039Z,19.60
2022-11-13T00:43:09.882Z,20.20
2022-11-13T00:43:21.685Z,21.33
2022-11-13T00:43:33.464Z,21.85
2022-11-13T00:43:45.442Z,22.00
2022-11-13T00:43:57.272Z,21.40
